sensor_id;sensor_type;location;lat;lon;timestamp;P1;durP1;ratioP1;P2;durP2;ratioP2
1370;SDS011;14306;49.942;11.570;2023-02-15T00:02:02;31.77;;;10.63;;
1370;SDS011;14306;49.942;11.570;2023-02-15T00:04:31;20.83;;;10.77;;
1370;SDS011;14306;49.942;11.570;2023-02-15T00:07:14;25.17;;;10.20;;
1370;SDS011;14306;49.942;11.570;2023-02-15T00:09:44;26.05;;;11.07;;
1370;SDS011;14306;49.942;11.570;2023-02-15T00:12:15;24.90;;;11.40;;
1370;SDS011;14306;49.942;11.570;2023-02-15T00:14:44;29.30;;;11.43;;
1370;SDS011;14306;49.942;11.570;2023-02-15T00:17:12;30.00;;;11.87;;
1370;SDS011;14306;49.942;11.570;2023-02-15T00:19:42;21.55;;;10.60;;
1370;SDS011;14306;49.942;11.570;2023-02-15T00:22:10;21.23;;;10.20;;
1370;SDS011;14306;49.942;11.570;2023-02-15T00:24:38;26.42;;;10.18;;
1370;SDS011;14306;49.942;11.570;2023-02-15T00:27:07;19.02;;;9.48;;
1370;SDS011;14306;49.942;11.570;2023-02-15T00:29:37;22.67;;;11.10;;
1370;SDS011;14306;49.942;11.570;2023-02-15T00:32:05;31.52;;;10.68;;
1370;SDS011;14306;49.942;11.570;2023-02-15T00:34:34;29.30;;;9.77;;
1370;SDS011;14306;49.942;11.570;2023-02-15T00:37:02;25.35;;;9.52;;
1370;SDS011;14306;49.942;11.570;2023-02-15T00:39:31;26.48;;;10.18;;
1370;SDS011;14306;49.942;11.570;2023-02-15T00:42:00;26.73;;;10.50;;
1370;SDS011;14306;49.942;11.570;2023-02-15T00:44:28;26.55;;;9.57;;
1370;SDS011;14306;49.942;11.570;2023-02-15T00:46:57;30.93;;;10.63;;
1370;SDS011;14306;49.942;11.570;2023-02-15T00:49:26;25.25;;;10.88;;
1370;SDS011;14306;49.942;11.570;2023-02-15T00:51:54;23.67;;;10.10;;
1370;SDS011;14306;49.942;11.570;2023-02-15T00:54:23;43.78;;;11.93;;
1370;SDS011;14306;49.942;11.570;2023-02-15T00:56:51;24.00;;;10.33;;
1370;SDS011;14306;49.942;11.570;2023-02-15T00:59:20;17.73;;;9.97;;
1370;SDS011;14306;49.942;11.570;2023-02-15T01:01:48;23.48;;;9.73;;
1370;SDS011;14306;49.942;11.570;2023-02-15T01:04:18;23.83;;;9.50;;
1370;SDS011;14306;49.942;11.570;2023-02-15T01:06:46;26.20;;;9.20;;
1370;SDS011;14306;49.942;11.570;2023-02-15T01:09:15;23.57;;;11.77;;
1370;SDS011;14306;49.942;11.570;2023-02-15T01:11:43;21.33;;;9.48;;
1370;SDS011;14306;49.942;11.570;2023-02-15T01:14:11;23.93;;;11.17;;
1370;SDS011;14306;49.942;11.570;2023-02-15T01:16:41;21.30;;;9.52;;
1370;SDS011;14306;49.942;11.570;2023-02-15T01:19:09;23.97;;;9.40;;
1370;SDS011;14306;49.942;11.570;2023-02-15T01:21:39;31.05;;;9.65;;
1370;SDS011;14306;49.942;11.570;2023-02-15T01:24:10;27.15;;;10.10;;
1370;SDS011;14306;49.942;11.570;2023-02-15T01:26:40;21.23;;;9.63;;
1370;SDS011;14306;49.942;11.570;2023-02-15T01:29:08;19.02;;;9.25;;
1370;SDS011;14306;49.942;11.570;2023-02-15T01:31:36;21.70;;;9.60;;
1370;SDS011;14306;49.942;11.570;2023-02-15T01:34:05;19.53;;;9.00;;
1370;SDS011;14306;49.942;11.570;2023-02-15T01:36:34;18.67;;;9.02;;
1370;SDS011;14306;49.942;11.570;2023-02-15T01:39:04;15.48;;;7.88;;
1370;SDS011;14306;49.942;11.570;2023-02-15T01:41:34;15.57;;;8.25;;
1370;SDS011;14306;49.942;11.570;2023-02-15T01:44:02;22.52;;;8.85;;
1370;SDS011;14306;49.942;11.570;2023-02-15T01:46:33;18.13;;;9.20;;
1370;SDS011;14306;49.942;11.570;2023-02-15T01:49:08;14.93;;;8.13;;
1370;SDS011;14306;49.942;11.570;2023-02-15T01:51:39;19.23;;;8.17;;
1370;SDS011;14306;49.942;11.570;2023-02-15T01:54:18;18.08;;;8.93;;
1370;SDS011;14306;49.942;11.570;2023-02-15T01:56:52;18.08;;;9.13;;
1370;SDS011;14306;49.942;11.570;2023-02-15T01:59:23;24.60;;;8.43;;
1370;SDS011;14306;49.942;11.570;2023-02-15T02:01:53;14.85;;;8.13;;
1370;SDS011;14306;49.942;11.570;2023-02-15T02:04:26;15.03;;;8.77;;
1370;SDS011;14306;49.942;11.570;2023-02-15T02:07:00;19.90;;;8.93;;
1370;SDS011;14306;49.942;11.570;2023-02-15T02:09:31;13.40;;;8.40;;
1370;SDS011;14306;49.942;11.570;2023-02-15T02:11:59;15.63;;;7.68;;
1370;SDS011;14306;49.942;11.570;2023-02-15T02:14:29;19.10;;;8.80;;
1370;SDS011;14306;49.942;11.570;2023-02-15T02:16:58;14.90;;;9.13;;
1370;SDS011;14306;49.942;11.570;2023-02-15T02:22:44;13.77;;;7.90;;
1370;SDS011;14306;49.942;11.570;2023-02-15T02:28:38;17.83;;;9.63;;
1370;SDS011;14306;49.942;11.570;2023-02-15T02:34:18;16.07;;;9.07;;
1370;SDS011;14306;49.942;11.570;2023-02-15T02:36:52;16.52;;;8.18;;
1370;SDS011;14306;49.942;11.570;2023-02-15T02:39:29;15.35;;;7.85;;
1370;SDS011;14306;49.942;11.570;2023-02-15T02:42:05;15.52;;;7.90;;
1370;SDS011;14306;49.942;11.570;2023-02-15T02:44:38;16.57;;;8.83;;
1370;SDS011;14306;49.942;11.570;2023-02-15T02:47:12;12.87;;;7.47;;
1370;SDS011;14306;49.942;11.570;2023-02-15T02:49:45;22.73;;;9.23;;
1370;SDS011;14306;49.942;11.570;2023-02-15T02:52:36;17.98;;;8.20;;
1370;SDS011;14306;49.942;11.570;2023-02-15T02:55:08;18.13;;;7.30;;
1370;SDS011;14306;49.942;11.570;2023-02-15T02:57:43;17.40;;;6.95;;
1370;SDS011;14306;49.942;11.570;2023-02-15T03:00:18;16.02;;;8.40;;
1370;SDS011;14306;49.942;11.570;2023-02-15T03:02:48;19.17;;;9.57;;
1370;SDS011;14306;49.942;11.570;2023-02-15T03:05:22;17.07;;;8.80;;
1370;SDS011;14306;49.942;11.570;2023-02-15T03:07:55;19.63;;;9.65;;
1370;SDS011;14306;49.942;11.570;2023-02-15T03:10:24;18.60;;;8.95;;
1370;SDS011;14306;49.942;11.570;2023-02-15T03:12:52;20.38;;;8.93;;
1370;SDS011;14306;49.942;11.570;2023-02-15T03:15:22;16.43;;;8.10;;
1370;SDS011;14306;49.942;11.570;2023-02-15T03:17:53;18.63;;;9.63;;
1370;SDS011;14306;49.942;11.570;2023-02-15T03:20:28;18.87;;;9.47;;
1370;SDS011;14306;49.942;11.570;2023-02-15T03:22:59;16.30;;;8.33;;
1370;SDS011;14306;49.942;11.570;2023-02-15T03:25:31;18.25;;;9.77;;
1370;SDS011;14306;49.942;11.570;2023-02-15T03:28:02;17.40;;;9.50;;
1370;SDS011;14306;49.942;11.570;2023-02-15T03:30:34;23.10;;;8.18;;
1370;SDS011;14306;49.942;11.570;2023-02-15T03:33:05;25.30;;;10.52;;
1370;SDS011;14306;49.942;11.570;2023-02-15T03:35:39;21.45;;;9.05;;
1370;SDS011;14306;49.942;11.570;2023-02-15T03:38:17;21.75;;;10.55;;
1370;SDS011;14306;49.942;11.570;2023-02-15T03:40:52;22.23;;;10.10;;
1370;SDS011;14306;49.942;11.570;2023-02-15T03:43:42;19.70;;;9.27;;
1370;SDS011;14306;49.942;11.570;2023-02-15T03:46:19;23.30;;;9.60;;
1370;SDS011;14306;49.942;11.570;2023-02-15T03:48:52;25.27;;;9.45;;
1370;SDS011;14306;49.942;11.570;2023-02-15T03:51:25;18.65;;;9.05;;
1370;SDS011;14306;49.942;11.570;2023-02-15T03:54:03;22.88;;;9.38;;
1370;SDS011;14306;49.942;11.570;2023-02-15T03:56:33;19.05;;;9.07;;
1370;SDS011;14306;49.942;11.570;2023-02-15T03:59:04;17.88;;;9.30;;
1370;SDS011;14306;49.942;11.570;2023-02-15T04:01:54;18.95;;;9.60;;
1370;SDS011;14306;49.942;11.570;2023-02-15T04:04:34;17.30;;;8.65;;
1370;SDS011;14306;49.942;11.570;2023-02-15T04:07:07;17.30;;;8.68;;
1370;SDS011;14306;49.942;11.570;2023-02-15T04:09:35;18.83;;;9.57;;
1370;SDS011;14306;49.942;11.570;2023-02-15T04:12:22;23.97;;;9.80;;
1370;SDS011;14306;49.942;11.570;2023-02-15T04:14:50;17.73;;;9.50;;
1370;SDS011;14306;49.942;11.570;2023-02-15T04:17:37;26.65;;;10.55;;
1370;SDS011;14306;49.942;11.570;2023-02-15T04:20:06;22.47;;;9.80;;
1370;SDS011;14306;49.942;11.570;2023-02-15T04:22:55;20.92;;;9.45;;
1370;SDS011;14306;49.942;11.570;2023-02-15T04:25:40;20.48;;;8.60;;
1370;SDS011;14306;49.942;11.570;2023-02-15T04:28:09;18.77;;;9.23;;
1370;SDS011;14306;49.942;11.570;2023-02-15T04:30:37;16.52;;;8.55;;
1370;SDS011;14306;49.942;11.570;2023-02-15T04:33:05;17.43;;;8.73;;
1370;SDS011;14306;49.942;11.570;2023-02-15T04:35:33;20.30;;;9.30;;
1370;SDS011;14306;49.942;11.570;2023-02-15T04:38:03;27.60;;;11.40;;
1370;SDS011;14306;49.942;11.570;2023-02-15T04:40:31;19.73;;;10.15;;
1370;SDS011;14306;49.942;11.570;2023-02-15T04:42:59;18.10;;;10.05;;
1370;SDS011;14306;49.942;11.570;2023-02-15T04:45:27;14.47;;;7.90;;
1370;SDS011;14306;49.942;11.570;2023-02-15T04:47:55;13.03;;;7.57;;
1370;SDS011;14306;49.942;11.570;2023-02-15T04:50:23;16.00;;;8.20;;
1370;SDS011;14306;49.942;11.570;2023-02-15T04:52:51;18.10;;;8.30;;
1370;SDS011;14306;49.942;11.570;2023-02-15T04:55:21;17.00;;;7.70;;
1370;SDS011;14306;49.942;11.570;2023-02-15T04:57:48;10.40;;;5.67;;
1370;SDS011;14306;49.942;11.570;2023-02-15T05:00:17;10.00;;;6.73;;
1370;SDS011;14306;49.942;11.570;2023-02-15T05:02:45;13.33;;;6.37;;
1370;SDS011;14306;49.942;11.570;2023-02-15T05:05:13;11.20;;;6.17;;
1370;SDS011;14306;49.942;11.570;2023-02-15T05:07:42;11.90;;;6.22;;
1370;SDS011;14306;49.942;11.570;2023-02-15T05:10:11;14.43;;;6.57;;
1370;SDS011;14306;49.942;11.570;2023-02-15T05:12:40;9.73;;;6.07;;
1370;SDS011;14306;49.942;11.570;2023-02-15T05:15:09;13.80;;;7.10;;
1370;SDS011;14306;49.942;11.570;2023-02-15T05:17:38;15.33;;;6.80;;
1370;SDS011;14306;49.942;11.570;2023-02-15T05:20:06;17.13;;;7.70;;
1370;SDS011;14306;49.942;11.570;2023-02-15T05:22:35;13.97;;;7.43;;
1370;SDS011;14306;49.942;11.570;2023-02-15T05:25:03;28.55;;;8.80;;
1370;SDS011;14306;49.942;11.570;2023-02-15T05:27:50;20.35;;;9.45;;
1370;SDS011;14306;49.942;11.570;2023-02-15T05:30:36;17.37;;;8.70;;
1370;SDS011;14306;49.942;11.570;2023-02-15T05:33:06;16.83;;;8.13;;
1370;SDS011;14306;49.942;11.570;2023-02-15T05:35:35;18.13;;;9.05;;
1370;SDS011;14306;49.942;11.570;2023-02-15T05:38:03;16.95;;;8.85;;
1370;SDS011;14306;49.942;11.570;2023-02-15T05:40:31;12.70;;;7.45;;
1370;SDS011;14306;49.942;11.570;2023-02-15T05:43:01;18.65;;;8.10;;
1370;SDS011;14306;49.942;11.570;2023-02-15T05:45:29;21.33;;;8.68;;
1370;SDS011;14306;49.942;11.570;2023-02-15T05:47:57;21.03;;;9.53;;
1370;SDS011;14306;49.942;11.570;2023-02-15T05:50:26;27.33;;;10.90;;
1370;SDS011;14306;49.942;11.570;2023-02-15T05:52:55;22.00;;;10.40;;
1370;SDS011;14306;49.942;11.570;2023-02-15T05:55:23;18.92;;;9.05;;
1370;SDS011;14306;49.942;11.570;2023-02-15T05:57:52;20.42;;;9.35;;
1370;SDS011;14306;49.942;11.570;2023-02-15T06:00:22;19.70;;;8.55;;
1370;SDS011;14306;49.942;11.570;2023-02-15T06:02:51;20.88;;;8.85;;
1370;SDS011;14306;49.942;11.570;2023-02-15T06:05:19;14.05;;;7.60;;
1370;SDS011;14306;49.942;11.570;2023-02-15T06:07:47;21.77;;;9.77;;
1370;SDS011;14306;49.942;11.570;2023-02-15T06:10:17;15.98;;;8.82;;
1370;SDS011;14306;49.942;11.570;2023-02-15T06:12:45;18.83;;;8.70;;
1370;SDS011;14306;49.942;11.570;2023-02-15T06:15:13;18.45;;;8.35;;
1370;SDS011;14306;49.942;11.570;2023-02-15T06:17:44;21.83;;;8.85;;
1370;SDS011;14306;49.942;11.570;2023-02-15T06:20:12;15.37;;;8.57;;
1370;SDS011;14306;49.942;11.570;2023-02-15T06:22:41;18.27;;;8.32;;
1370;SDS011;14306;49.942;11.570;2023-02-15T06:25:12;20.90;;;9.73;;
1370;SDS011;14306;49.942;11.570;2023-02-15T06:27:41;17.52;;;9.20;;
1370;SDS011;14306;49.942;11.570;2023-02-15T06:30:10;15.80;;;8.20;;
1370;SDS011;14306;49.942;11.570;2023-02-15T06:32:39;16.15;;;9.52;;
1370;SDS011;14306;49.942;11.570;2023-02-15T06:35:09;22.53;;;9.23;;
1370;SDS011;14306;49.942;11.570;2023-02-15T06:37:38;16.10;;;8.20;;
1370;SDS011;14306;49.942;11.570;2023-02-15T06:40:07;19.80;;;9.13;;
1370;SDS011;14306;49.942;11.570;2023-02-15T06:42:36;15.85;;;8.75;;
1370;SDS011;14306;49.942;11.570;2023-02-15T06:45:04;22.95;;;10.25;;
1370;SDS011;14306;49.942;11.570;2023-02-15T06:47:33;21.08;;;10.18;;
1370;SDS011;14306;49.942;11.570;2023-02-15T06:50:02;27.98;;;12.98;;
1370;SDS011;14306;49.942;11.570;2023-02-15T06:52:33;26.43;;;10.73;;
1370;SDS011;14306;49.942;11.570;2023-02-15T06:55:02;25.00;;;10.70;;
1370;SDS011;14306;49.942;11.570;2023-02-15T06:57:41;23.98;;;12.07;;
1370;SDS011;14306;49.942;11.570;2023-02-15T07:00:11;30.53;;;12.30;;
1370;SDS011;14306;49.942;11.570;2023-02-15T07:02:41;27.10;;;11.70;;
1370;SDS011;14306;49.942;11.570;2023-02-15T07:05:09;31.33;;;13.27;;
1370;SDS011;14306;49.942;11.570;2023-02-15T07:07:40;27.77;;;10.85;;
1370;SDS011;14306;49.942;11.570;2023-02-15T07:10:08;20.90;;;10.57;;
1370;SDS011;14306;49.942;11.570;2023-02-15T07:12:37;20.88;;;11.00;;
1370;SDS011;14306;49.942;11.570;2023-02-15T07:15:12;29.20;;;10.95;;
1370;SDS011;14306;49.942;11.570;2023-02-15T07:17:43;23.45;;;10.25;;
1370;SDS011;14306;49.942;11.570;2023-02-15T07:20:14;25.45;;;10.98;;
1370;SDS011;14306;49.942;11.570;2023-02-15T07:22:46;19.67;;;9.73;;
1370;SDS011;14306;49.942;11.570;2023-02-15T07:25:15;22.30;;;9.68;;
1370;SDS011;14306;49.942;11.570;2023-02-15T07:27:45;17.33;;;7.85;;
1370;SDS011;14306;49.942;11.570;2023-02-15T07:30:14;18.80;;;9.15;;
1370;SDS011;14306;49.942;11.570;2023-02-15T07:32:46;13.93;;;8.10;;
1370;SDS011;14306;49.942;11.570;2023-02-15T07:35:31;16.90;;;6.70;;
1370;SDS011;14306;49.942;11.570;2023-02-15T07:38:02;15.57;;;7.87;;
1370;SDS011;14306;49.942;11.570;2023-02-15T07:40:30;18.73;;;7.97;;
1370;SDS011;14306;49.942;11.570;2023-02-15T07:42:58;22.70;;;9.80;;
1370;SDS011;14306;49.942;11.570;2023-02-15T07:45:27;20.43;;;9.20;;
1370;SDS011;14306;49.942;11.570;2023-02-15T07:47:55;19.27;;;8.40;;
1370;SDS011;14306;49.942;11.570;2023-02-15T07:50:23;15.33;;;8.40;;
1370;SDS011;14306;49.942;11.570;2023-02-15T07:52:52;17.57;;;8.77;;
1370;SDS011;14306;49.942;11.570;2023-02-15T07:55:22;23.35;;;9.55;;
1370;SDS011;14306;49.942;11.570;2023-02-15T07:57:51;18.88;;;9.15;;
1370;SDS011;14306;49.942;11.570;2023-02-15T08:00:21;14.53;;;7.80;;
1370;SDS011;14306;49.942;11.570;2023-02-15T08:02:52;17.27;;;9.87;;
1370;SDS011;14306;49.942;11.570;2023-02-15T08:05:36;13.43;;;8.00;;
1370;SDS011;14306;49.942;11.570;2023-02-15T08:08:05;19.63;;;8.77;;
1370;SDS011;14306;49.942;11.570;2023-02-15T08:10:35;19.93;;;9.17;;
1370;SDS011;14306;49.942;11.570;2023-02-15T08:13:21;13.67;;;6.93;;
1370;SDS011;14306;49.942;11.570;2023-02-15T08:15:51;13.93;;;6.83;;
1370;SDS011;14306;49.942;11.570;2023-02-15T08:18:20;16.50;;;8.70;;
1370;SDS011;14306;49.942;11.570;2023-02-15T08:20:49;17.17;;;8.60;;
1370;SDS011;14306;49.942;11.570;2023-02-15T08:23:18;18.00;;;9.03;;
1370;SDS011;14306;49.942;11.570;2023-02-15T08:25:47;17.50;;;9.40;;
1370;SDS011;14306;49.942;11.570;2023-02-15T08:28:16;20.97;;;10.00;;
1370;SDS011;14306;49.942;11.570;2023-02-15T08:30:45;14.90;;;8.60;;
1370;SDS011;14306;49.942;11.570;2023-02-15T08:33:14;14.60;;;7.50;;
1370;SDS011;14306;49.942;11.570;2023-02-15T08:35:44;15.10;;;8.13;;
1370;SDS011;14306;49.942;11.570;2023-02-15T08:38:13;13.87;;;8.63;;
1370;SDS011;14306;49.942;11.570;2023-02-15T08:40:41;16.53;;;7.97;;
1370;SDS011;14306;49.942;11.570;2023-02-15T08:43:12;17.70;;;8.93;;
1370;SDS011;14306;49.942;11.570;2023-02-15T08:45:40;13.10;;;7.50;;
1370;SDS011;14306;49.942;11.570;2023-02-15T08:48:09;15.67;;;8.10;;
1370;SDS011;14306;49.942;11.570;2023-02-15T08:50:37;12.17;;;6.67;;
1370;SDS011;14306;49.942;11.570;2023-02-15T08:53:06;17.50;;;8.00;;
1370;SDS011;14306;49.942;11.570;2023-02-15T08:55:34;14.50;;;6.93;;
1370;SDS011;14306;49.942;11.570;2023-02-15T08:58:03;14.30;;;7.27;;
1370;SDS011;14306;49.942;11.570;2023-02-15T09:00:33;16.30;;;9.30;;
1370;SDS011;14306;49.942;11.570;2023-02-15T09:03:01;12.20;;;6.60;;
1370;SDS011;14306;49.942;11.570;2023-02-15T09:05:30;15.40;;;8.60;;
1370;SDS011;14306;49.942;11.570;2023-02-15T09:07:58;12.67;;;7.17;;
1370;SDS011;14306;49.942;11.570;2023-02-15T09:10:26;11.93;;;8.13;;
1370;SDS011;14306;49.942;11.570;2023-02-15T09:12:55;11.37;;;6.37;;
1370;SDS011;14306;49.942;11.570;2023-02-15T09:15:23;12.60;;;7.03;;
1370;SDS011;14306;49.942;11.570;2023-02-15T09:17:55;12.27;;;7.07;;
1370;SDS011;14306;49.942;11.570;2023-02-15T09:20:25;10.70;;;6.50;;
1370;SDS011;14306;49.942;11.570;2023-02-15T09:22:54;12.70;;;7.47;;
1370;SDS011;14306;49.942;11.570;2023-02-15T09:25:25;10.90;;;6.60;;
1370;SDS011;14306;49.942;11.570;2023-02-15T09:27:55;14.00;;;7.27;;
1370;SDS011;14306;49.942;11.570;2023-02-15T09:30:23;12.40;;;6.83;;
1370;SDS011;14306;49.942;11.570;2023-02-15T09:32:52;12.37;;;7.20;;
1370;SDS011;14306;49.942;11.570;2023-02-15T09:35:22;12.67;;;7.93;;
1370;SDS011;14306;49.942;11.570;2023-02-15T09:37:50;15.20;;;7.43;;
1370;SDS011;14306;49.942;11.570;2023-02-15T09:40:21;13.13;;;7.07;;
1370;SDS011;14306;49.942;11.570;2023-02-15T09:42:56;11.00;;;6.10;;
1370;SDS011;14306;49.942;11.570;2023-02-15T09:45:45;14.07;;;7.23;;
1370;SDS011;14306;49.942;11.570;2023-02-15T09:48:36;11.10;;;6.93;;
1370;SDS011;14306;49.942;11.570;2023-02-15T09:51:25;14.93;;;7.57;;
1370;SDS011;14306;49.942;11.570;2023-02-15T09:54:12;14.67;;;7.60;;
1370;SDS011;14306;49.942;11.570;2023-02-15T09:56:51;15.33;;;8.70;;
1370;SDS011;14306;49.942;11.570;2023-02-15T09:59:27;13.37;;;7.20;;
1370;SDS011;14306;49.942;11.570;2023-02-15T10:02:06;21.80;;;8.63;;
1370;SDS011;14306;49.942;11.570;2023-02-15T10:04:51;12.20;;;6.60;;
1370;SDS011;14306;49.942;11.570;2023-02-15T10:07:35;13.53;;;8.07;;
1370;SDS011;14306;49.942;11.570;2023-02-15T10:10:18;13.50;;;7.27;;
1370;SDS011;14306;49.942;11.570;2023-02-15T10:12:57;12.17;;;7.40;;
1370;SDS011;14306;49.942;11.570;2023-02-15T10:15:39;12.03;;;7.33;;
1370;SDS011;14306;49.942;11.570;2023-02-15T10:21:17;9.13;;;5.70;;
1370;SDS011;14306;49.942;11.570;2023-02-15T10:24:04;12.83;;;6.80;;
1370;SDS011;14306;49.942;11.570;2023-02-15T10:26:44;19.33;;;8.43;;
1370;SDS011;14306;49.942;11.570;2023-02-15T10:29:16;13.33;;;8.10;;
1370;SDS011;14306;49.942;11.570;2023-02-15T10:31:59;17.03;;;9.30;;
1370;SDS011;14306;49.942;11.570;2023-02-15T10:38:29;12.93;;;7.40;;
1370;SDS011;14306;49.942;11.570;2023-02-15T10:41:09;13.50;;;7.37;;
1370;SDS011;14306;49.942;11.570;2023-02-15T10:44:00;15.33;;;8.37;;
1370;SDS011;14306;49.942;11.570;2023-02-15T10:46:43;24.50;;;10.37;;
1370;SDS011;14306;49.942;11.570;2023-02-15T10:49:37;20.10;;;8.93;;
1370;SDS011;14306;49.942;11.570;2023-02-15T10:52:21;24.00;;;8.73;;
1370;SDS011;14306;49.942;11.570;2023-02-15T10:54:59;20.73;;;11.17;;
1370;SDS011;14306;49.942;11.570;2023-02-15T10:57:41;20.50;;;10.33;;
1370;SDS011;14306;49.942;11.570;2023-02-15T11:00:21;14.27;;;9.37;;
1370;SDS011;14306;49.942;11.570;2023-02-15T11:03:05;15.70;;;8.83;;
1370;SDS011;14306;49.942;11.570;2023-02-15T11:05:45;15.00;;;8.90;;
1370;SDS011;14306;49.942;11.570;2023-02-15T11:08:22;23.27;;;9.80;;
1370;SDS011;14306;49.942;11.570;2023-02-15T11:10:54;18.23;;;9.37;;
1370;SDS011;14306;49.942;11.570;2023-02-15T11:13:31;16.30;;;9.47;;
1370;SDS011;14306;49.942;11.570;2023-02-15T11:16:05;17.17;;;10.23;;
1370;SDS011;14306;49.942;11.570;2023-02-15T11:18:39;15.27;;;9.30;;
1370;SDS011;14306;49.942;11.570;2023-02-15T11:21:13;16.67;;;8.80;;
1370;SDS011;14306;49.942;11.570;2023-02-15T11:23:49;15.53;;;9.33;;
1370;SDS011;14306;49.942;11.570;2023-02-15T11:26:21;16.07;;;8.80;;
1370;SDS011;14306;49.942;11.570;2023-02-15T11:28:59;16.37;;;8.90;;
1370;SDS011;14306;49.942;11.570;2023-02-15T11:31:39;17.23;;;8.20;;
1370;SDS011;14306;49.942;11.570;2023-02-15T11:34:13;18.07;;;8.37;;
1370;SDS011;14306;49.942;11.570;2023-02-15T11:36:47;13.37;;;8.03;;
1370;SDS011;14306;49.942;11.570;2023-02-15T11:39:19;14.97;;;7.40;;
1370;SDS011;14306;49.942;11.570;2023-02-15T11:41:52;14.73;;;9.00;;
1370;SDS011;14306;49.942;11.570;2023-02-15T11:44:25;18.83;;;9.17;;
1370;SDS011;14306;49.942;11.570;2023-02-15T11:46:59;19.20;;;9.87;;
1370;SDS011;14306;49.942;11.570;2023-02-15T11:49:29;15.27;;;9.00;;
1370;SDS011;14306;49.942;11.570;2023-02-15T11:52:00;14.60;;;8.67;;
1370;SDS011;14306;49.942;11.570;2023-02-15T11:54:33;15.20;;;8.77;;
1370;SDS011;14306;49.942;11.570;2023-02-15T11:57:10;23.97;;;9.83;;
1370;SDS011;14306;49.942;11.570;2023-02-15T11:59:46;19.40;;;9.60;;
1370;SDS011;14306;49.942;11.570;2023-02-15T12:02:18;18.10;;;8.90;;
1370;SDS011;14306;49.942;11.570;2023-02-15T12:04:51;12.13;;;7.87;;
1370;SDS011;14306;49.942;11.570;2023-02-15T12:07:23;15.77;;;8.73;;
1370;SDS011;14306;49.942;11.570;2023-02-15T12:09:56;15.40;;;9.40;;
1370;SDS011;14306;49.942;11.570;2023-02-15T12:12:34;18.27;;;10.00;;
1370;SDS011;14306;49.942;11.570;2023-02-15T12:15:05;13.93;;;8.47;;
1370;SDS011;14306;49.942;11.570;2023-02-15T12:17:37;23.03;;;10.67;;
1370;SDS011;14306;49.942;11.570;2023-02-15T12:20:20;14.63;;;9.23;;
1370;SDS011;14306;49.942;11.570;2023-02-15T12:22:52;16.60;;;9.10;;
1370;SDS011;14306;49.942;11.570;2023-02-15T12:25:26;16.13;;;8.50;;
1370;SDS011;14306;49.942;11.570;2023-02-15T12:28:02;22.67;;;10.40;;
1370;SDS011;14306;49.942;11.570;2023-02-15T12:30:34;16.70;;;9.67;;
1370;SDS011;14306;49.942;11.570;2023-02-15T12:33:05;18.73;;;10.10;;
1370;SDS011;14306;49.942;11.570;2023-02-15T12:35:43;20.77;;;10.87;;
1370;SDS011;14306;49.942;11.570;2023-02-15T12:38:21;22.00;;;10.90;;
1370;SDS011;14306;49.942;11.570;2023-02-15T12:40:59;18.27;;;10.50;;
1370;SDS011;14306;49.942;11.570;2023-02-15T12:43:31;17.00;;;9.57;;
1370;SDS011;14306;49.942;11.570;2023-02-15T12:46:22;22.50;;;10.40;;
1370;SDS011;14306;49.942;11.570;2023-02-15T12:49:04;17.33;;;10.23;;
1370;SDS011;14306;49.942;11.570;2023-02-15T12:51:45;20.50;;;11.57;;
1370;SDS011;14306;49.942;11.570;2023-02-15T12:54:16;17.73;;;10.90;;
1370;SDS011;14306;49.942;11.570;2023-02-15T12:56:56;19.93;;;10.47;;
1370;SDS011;14306;49.942;11.570;2023-02-15T12:59:25;22.50;;;12.37;;
1370;SDS011;14306;49.942;11.570;2023-02-15T13:01:54;18.87;;;10.50;;
1370;SDS011;14306;49.942;11.570;2023-02-15T13:04:24;19.70;;;10.50;;
1370;SDS011;14306;49.942;11.570;2023-02-15T13:06:54;19.90;;;11.20;;
1370;SDS011;14306;49.942;11.570;2023-02-15T13:09:34;26.67;;;10.40;;
1370;SDS011;14306;49.942;11.570;2023-02-15T13:12:09;20.20;;;10.27;;
1370;SDS011;14306;49.942;11.570;2023-02-15T13:14:42;19.70;;;11.20;;
1370;SDS011;14306;49.942;11.570;2023-02-15T13:17:13;15.70;;;9.53;;
1370;SDS011;14306;49.942;11.570;2023-02-15T13:19:44;21.00;;;10.57;;
1370;SDS011;14306;49.942;11.570;2023-02-15T13:22:16;17.33;;;11.07;;
1370;SDS011;14306;49.942;11.570;2023-02-15T13:24:50;18.63;;;10.03;;
1370;SDS011;14306;49.942;11.570;2023-02-15T13:27:21;17.80;;;10.20;;
1370;SDS011;14306;49.942;11.570;2023-02-15T13:29:52;18.10;;;9.63;;
1370;SDS011;14306;49.942;11.570;2023-02-15T13:32:27;25.10;;;11.40;;
1370;SDS011;14306;49.942;11.570;2023-02-15T13:34:58;17.50;;;10.73;;
1370;SDS011;14306;49.942;11.570;2023-02-15T13:37:36;24.20;;;10.60;;
1370;SDS011;14306;49.942;11.570;2023-02-15T13:40:18;14.80;;;9.10;;
1370;SDS011;14306;49.942;11.570;2023-02-15T13:42:54;17.50;;;10.07;;
1370;SDS011;14306;49.942;11.570;2023-02-15T13:45:32;20.30;;;11.00;;
1370;SDS011;14306;49.942;11.570;2023-02-15T13:48:13;19.87;;;9.90;;
1370;SDS011;14306;49.942;11.570;2023-02-15T13:50:51;18.33;;;10.00;;
1370;SDS011;14306;49.942;11.570;2023-02-15T13:53:50;16.93;;;9.83;;
1370;SDS011;14306;49.942;11.570;2023-02-15T13:56:32;22.57;;;10.13;;
1370;SDS011;14306;49.942;11.570;2023-02-15T14:05:12;23.80;;;11.80;;
1370;SDS011;14306;49.942;11.570;2023-02-15T14:18:16;17.53;;;10.30;;
1370;SDS011;14306;49.942;11.570;2023-02-15T15:01:54;20.00;;;11.30;;
1370;SDS011;14306;49.942;11.570;2023-02-15T15:04:27;20.60;;;11.37;;
1370;SDS011;14306;49.942;11.570;2023-02-15T15:07:02;18.50;;;10.10;;
1370;SDS011;14306;49.942;11.570;2023-02-15T15:09:38;20.33;;;10.73;;
1370;SDS011;14306;49.942;11.570;2023-02-15T15:12:13;19.70;;;11.30;;
1370;SDS011;14306;49.942;11.570;2023-02-15T15:15:00;18.20;;;10.30;;
1370;SDS011;14306;49.942;11.570;2023-02-15T15:20:40;20.00;;;11.73;;
1370;SDS011;14306;49.942;11.570;2023-02-15T15:23:39;21.67;;;11.40;;
1370;SDS011;14306;49.942;11.570;2023-02-15T15:26:26;20.40;;;11.10;;
1370;SDS011;14306;49.942;11.570;2023-02-15T15:29:00;22.93;;;11.80;;
1370;SDS011;14306;49.942;11.570;2023-02-15T15:31:43;23.57;;;12.13;;
1370;SDS011;14306;49.942;11.570;2023-02-15T15:43:51;24.57;;;12.80;;
1370;SDS011;14306;49.942;11.570;2023-02-15T15:46:41;22.23;;;11.47;;
1370;SDS011;14306;49.942;11.570;2023-02-15T15:49:23;22.03;;;11.60;;
1370;SDS011;14306;49.942;11.570;2023-02-15T15:51:55;19.80;;;11.97;;
1370;SDS011;14306;49.942;11.570;2023-02-15T15:54:28;20.43;;;11.60;;
1370;SDS011;14306;49.942;11.570;2023-02-15T15:56:58;28.87;;;11.87;;
1370;SDS011;14306;49.942;11.570;2023-02-15T15:59:32;20.40;;;12.07;;
1370;SDS011;14306;49.942;11.570;2023-02-15T16:02:06;22.07;;;12.30;;
1370;SDS011;14306;49.942;11.570;2023-02-15T16:04:35;25.90;;;12.23;;
1370;SDS011;14306;49.942;11.570;2023-02-15T16:25:32;26.10;;;14.30;;
1370;SDS011;14306;49.942;11.570;2023-02-15T16:33:13;26.37;;;14.47;;
1370;SDS011;14306;49.942;11.570;2023-02-15T16:38:19;23.67;;;13.97;;
1370;SDS011;14306;49.942;11.570;2023-02-15T17:02:26;35.23;;;15.10;;
1370;SDS011;14306;49.942;11.570;2023-02-15T17:05:17;33.73;;;16.80;;
1370;SDS011;14306;49.942;11.570;2023-02-15T17:07:52;38.07;;;17.80;;
1370;SDS011;14306;49.942;11.570;2023-02-15T17:10:37;32.63;;;16.10;;
1370;SDS011;14306;49.942;11.570;2023-02-15T17:13:12;29.27;;;16.73;;
1370;SDS011;14306;49.942;11.570;2023-02-15T17:15:42;32.13;;;16.30;;
1370;SDS011;14306;49.942;11.570;2023-02-15T17:18:16;32.73;;;15.33;;
1370;SDS011;14306;49.942;11.570;2023-02-15T17:20:47;34.50;;;17.70;;